Andrews AFB, Maryland
Current Conditions -  °F | °C
As of 12:58 PM on Friday 21 Nov 2014 (Local Time) from KADW Reporting Station
Clear Clear  
Wind Chill: 26°   Ceiling: Unl
Heat Index: 35°   Visibility: 10mi
Dew Point:   Wind: 14mph
Humidity: 29%   Direction: 320°NW
Pressure: 30.43"   Gusts: 22mph
Location:  38.8°N, 76.87°W
Report Text: KADW 211758Z AUTO 32012G19KT 10SM CLR 02/M15 A3043 RMK AO2 SLP314 T00181146 10018 21018 58001 $
Loading
Personal Weather Stations






























Interactive Weather Map New forecast layout! Learn more

10-Day Weather Forecast

Advertisements
Track Severe Weather on mobile